createdAt,value
2023-02-13T00:01:55.454Z,15.30
2023-02-13T00:04:26.383Z,14.03
2023-02-13T00:06:57.370Z,13.93
2023-02-13T00:09:28.606Z,15.53
2023-02-13T00:11:59.553Z,15.00
2023-02-13T00:14:30.633Z,13.07
2023-02-13T00:17:01.488Z,13.00
2023-02-13T00:19:32.617Z,13.90
2023-02-13T00:22:03.510Z,13.83
2023-02-13T00:24:34.563Z,14.13
2023-02-13T00:27:05.727Z,12.93
2023-02-13T00:29:36.610Z,13.10
2023-02-13T00:32:08.087Z,13.23
2023-02-13T00:34:39.401Z,12.97
2023-02-13T00:37:10.500Z,13.60
2023-02-13T00:39:41.727Z,14.13
2023-02-13T00:42:12.685Z,13.20
2023-02-13T00:44:43.559Z,14.40
2023-02-13T00:47:15.031Z,12.60
2023-02-13T00:49:46.187Z,12.43
2023-02-13T00:52:17.222Z,13.53
2023-02-13T00:54:48.549Z,14.20
2023-02-13T00:57:19.536Z,13.77
2023-02-13T00:59:51.193Z,13.67
2023-02-13T01:02:23.072Z,12.60
2023-02-13T01:04:54.068Z,13.27
2023-02-13T01:07:25.385Z,12.50
2023-02-13T01:09:56.181Z,13.37
2023-02-13T01:12:27.044Z,13.53
2023-02-13T01:14:57.954Z,13.67
2023-02-13T01:17:28.971Z,14.17
2023-02-13T01:20:00.150Z,15.33
2023-02-13T01:22:31.149Z,17.57
2023-02-13T01:25:02.097Z,14.53
2023-02-13T01:27:33.451Z,13.63
2023-02-13T01:30:04.742Z,12.43
2023-02-13T01:32:35.681Z,12.63
2023-02-13T01:35:07.189Z,12.87
2023-02-13T01:37:39.244Z,12.50
2023-02-13T01:40:14.243Z,13.27
2023-02-13T01:42:45.315Z,13.80
2023-02-13T01:45:27.622Z,12.73
2023-02-13T01:48:01.567Z,12.23
2023-02-13T01:50:35.519Z,12.53
2023-02-13T01:53:09.263Z,12.83
2023-02-13T01:55:43.576Z,12.40
2023-02-13T01:58:18.779Z,11.83
2023-02-13T02:01:09.609Z,12.20
2023-02-13T02:03:43.363Z,11.33
2023-02-13T02:06:18.146Z,12.47
2023-02-13T02:08:51.637Z,13.77
2023-02-13T02:11:26.771Z,13.27
2023-02-13T02:13:59.368Z,12.53
2023-02-13T02:16:30.635Z,12.47
2023-02-13T02:19:02.881Z,13.00
2023-02-13T02:25:13.479Z,13.77
2023-02-13T02:28:06.654Z,13.13
2023-02-13T02:33:58.959Z,12.57
2023-02-13T02:36:37.801Z,13.17
2023-02-13T02:39:12.927Z,13.23
2023-02-13T02:41:51.968Z,13.57
2023-02-13T02:44:33.215Z,13.53
2023-02-13T02:47:31.938Z,13.90
2023-02-13T02:50:09.406Z,13.33
2023-02-13T02:52:47.134Z,12.40
2023-02-13T02:55:25.536Z,12.57
2023-02-13T02:58:17.060Z,13.70
2023-02-13T03:01:07.508Z,13.57
2023-02-13T03:03:57.328Z,12.30
2023-02-13T03:06:31.652Z,13.10
2023-02-13T03:09:23.276Z,12.70
2023-02-13T03:12:13.903Z,12.37
2023-02-13T03:14:45.731Z,14.70
2023-02-13T03:17:37.256Z,13.50
2023-02-13T03:20:38.404Z,14.17
2023-02-13T03:23:18.161Z,12.33
2023-02-13T03:26:11.322Z,12.67
2023-02-13T03:29:02.959Z,12.57
2023-02-13T03:31:38.016Z,13.17
2023-02-13T03:34:11.520Z,13.13
2023-02-13T03:37:07.083Z,12.53
2023-02-13T03:39:48.158Z,11.77
2023-02-13T03:42:22.403Z,12.43
2023-02-13T03:45:15.844Z,11.93
2023-02-13T03:47:49.124Z,12.23
2023-02-13T03:50:21.459Z,11.60
2023-02-13T03:52:55.158Z,12.80
2023-02-13T03:55:46.548Z,11.93
2023-02-13T03:58:38.050Z,12.97
2023-02-13T04:01:11.979Z,12.53
2023-02-13T04:03:46.480Z,13.43
2023-02-13T04:06:20.594Z,12.73
2023-02-13T04:08:51.586Z,13.40
2023-02-13T04:11:25.546Z,11.30
2023-02-13T04:13:58.722Z,12.17
2023-02-13T04:16:34.432Z,12.87
2023-02-13T04:19:06.501Z,12.23
2023-02-13T04:21:38.226Z,12.23
2023-02-13T04:24:10.602Z,11.70
2023-02-13T04:26:44.023Z,13.17
2023-02-13T04:29:15.175Z,12.10
2023-02-13T04:31:46.353Z,11.80
2023-02-13T04:34:17.629Z,12.47
2023-02-13T04:36:48.554Z,11.30
2023-02-13T04:39:19.650Z,17.87
2023-02-13T04:41:50.650Z,16.63
2023-02-13T04:44:21.568Z,14.80
2023-02-13T04:46:52.714Z,14.20
2023-02-13T04:49:23.824Z,12.90
2023-02-13T04:51:54.899Z,13.03
2023-02-13T04:54:25.826Z,12.80
2023-02-13T04:56:56.742Z,14.10
2023-02-13T04:59:27.869Z,12.07
2023-02-13T05:01:59.473Z,13.00
2023-02-13T05:04:30.783Z,13.17
2023-02-13T05:07:01.802Z,14.13
2023-02-13T05:09:32.785Z,13.35
2023-02-13T05:12:03.797Z,15.73
2023-02-13T05:17:12.333Z,13.83
2023-02-13T05:19:43.324Z,14.37
2023-02-13T05:22:32.182Z,13.23
2023-02-13T05:27:41.555Z,11.33
2023-02-13T05:30:15.380Z,12.33
2023-02-13T05:32:46.351Z,13.37
2023-02-13T05:35:17.460Z,12.50
2023-02-13T05:37:48.380Z,11.33
2023-02-13T05:40:21.314Z,12.50
2023-02-13T05:42:53.908Z,10.10
2023-02-13T05:45:25.024Z,11.07
2023-02-13T05:47:56.274Z,10.67
2023-02-13T05:50:27.274Z,11.70
2023-02-13T05:52:58.103Z,12.47
2023-02-13T05:55:29.312Z,11.40
2023-02-13T05:58:00.431Z,10.63
2023-02-13T06:00:31.411Z,12.00
2023-02-13T06:03:02.405Z,11.20
2023-02-13T06:05:33.526Z,10.20
2023-02-13T06:08:04.778Z,10.17
2023-02-13T06:10:36.297Z,11.57
2023-02-13T06:13:07.575Z,11.20
2023-02-13T06:15:38.528Z,10.60
2023-02-13T06:18:28.155Z,10.13
2023-02-13T06:20:59.870Z,9.77
2023-02-13T06:23:31.517Z,8.93
2023-02-13T06:26:06.942Z,10.63
2023-02-13T06:28:38.456Z,10.57
2023-02-13T06:31:09.471Z,10.77
2023-02-13T06:33:40.603Z,10.30
2023-02-13T06:36:11.833Z,21.00
2023-02-13T06:38:43.303Z,29.70
2023-02-13T06:41:14.665Z,25.03
2023-02-13T06:43:45.687Z,30.13
2023-02-13T06:46:16.870Z,29.60
2023-02-13T06:48:48.452Z,29.33
2023-02-13T06:51:19.565Z,27.40
2023-02-13T06:53:50.682Z,26.90
2023-02-13T06:56:21.982Z,26.40
2023-02-13T06:58:53.113Z,24.93
2023-02-13T07:01:24.176Z,26.77
2023-02-13T07:03:55.282Z,23.17
2023-02-13T07:06:26.535Z,25.20
2023-02-13T07:11:42.399Z,24.40
2023-02-13T07:14:13.486Z,23.90
2023-02-13T07:16:46.133Z,27.80
2023-02-13T07:19:17.478Z,29.27
2023-02-13T07:21:48.468Z,26.97
2023-02-13T07:24:19.608Z,22.00
2023-02-13T07:26:50.801Z,19.67
2023-02-13T07:29:21.908Z,18.67
2023-02-13T07:31:53.195Z,23.07
2023-02-13T07:34:24.557Z,25.53
2023-02-13T07:36:55.940Z,25.50
2023-02-13T07:39:27.000Z,20.50
2023-02-13T07:41:58.822Z,18.60
2023-02-13T07:44:29.971Z,16.73
2023-02-13T07:47:02.207Z,21.97
2023-02-13T07:49:33.466Z,22.87
2023-02-13T07:52:04.664Z,23.80
2023-02-13T07:54:35.739Z,25.10
2023-02-13T07:57:07.840Z,22.27
2023-02-13T07:59:38.819Z,23.90
2023-02-13T08:02:14.616Z,22.77
2023-02-13T08:04:47.125Z,22.20
2023-02-13T08:07:18.966Z,23.40
2023-02-13T08:10:07.831Z,21.90
2023-02-13T08:12:39.759Z,22.43
2023-02-13T08:15:13.600Z,21.43
2023-02-13T08:17:50.434Z,20.87
2023-02-13T08:20:22.195Z,27.90
2023-02-13T08:22:53.384Z,31.10
2023-02-13T08:25:24.447Z,31.97
2023-02-13T08:27:55.711Z,35.00
2023-02-13T08:30:26.931Z,37.47
2023-02-13T08:32:57.987Z,37.10
2023-02-13T08:35:31.954Z,39.00
2023-02-13T08:38:06.004Z,33.93
2023-02-13T08:40:37.416Z,28.63
2023-02-13T08:43:09.386Z,33.63
2023-02-13T08:45:40.306Z,32.70
2023-02-13T08:48:11.129Z,30.03
2023-02-13T08:50:42.236Z,26.83
2023-02-13T08:53:13.315Z,26.10
2023-02-13T08:55:44.217Z,26.67
2023-02-13T08:58:15.429Z,26.23
2023-02-13T09:00:46.509Z,24.53
2023-02-13T09:03:17.863Z,23.10
2023-02-13T09:05:48.916Z,21.30
2023-02-13T09:08:19.967Z,21.33
2023-02-13T09:10:53.932Z,21.27
2023-02-13T09:13:25.068Z,24.63
2023-02-13T09:15:59.018Z,23.53
2023-02-13T09:18:49.937Z,22.93
2023-02-13T09:21:22.938Z,20.60
2023-02-13T09:23:55.438Z,18.43
2023-02-13T09:26:26.409Z,18.53
2023-02-13T09:28:57.482Z,18.47
2023-02-13T09:31:29.757Z,19.30
2023-02-13T09:34:00.793Z,20.03
2023-02-13T09:36:33.355Z,19.37
2023-02-13T09:39:04.459Z,18.73
2023-02-13T09:41:38.030Z,19.63
2023-02-13T09:44:13.221Z,16.60
2023-02-13T09:46:46.075Z,17.77
2023-02-13T09:49:19.982Z,17.77
2023-02-13T09:51:54.357Z,18.93
2023-02-13T09:54:26.772Z,18.53
2023-02-13T09:57:01.886Z,16.87
2023-02-13T09:59:49.998Z,16.93
2023-02-13T10:02:53.723Z,16.40
2023-02-13T10:05:38.118Z,15.83
2023-02-13T10:08:12.730Z,16.60
2023-02-13T10:10:47.832Z,16.73
2023-02-13T10:13:26.908Z,16.23
2023-02-13T10:16:02.976Z,17.07
2023-02-13T10:21:17.909Z,16.83
2023-02-13T10:23:51.783Z,18.13
2023-02-13T10:26:27.500Z,17.37
2023-02-13T10:29:18.607Z,17.00
2023-02-13T10:31:52.795Z,17.10
2023-02-13T10:34:26.716Z,16.80
2023-02-13T10:36:57.984Z,17.37
2023-02-13T10:39:30.657Z,17.07
2023-02-13T10:42:05.807Z,18.20
2023-02-13T10:44:43.186Z,19.07
2023-02-13T10:50:07.386Z,18.47
2023-02-13T10:52:45.544Z,18.37
2023-02-13T10:58:10.774Z,17.37
2023-02-13T11:00:45.573Z,17.60
2023-02-13T11:03:22.472Z,17.73
2023-02-13T11:05:54.541Z,17.30
2023-02-13T11:08:27.605Z,17.83
2023-02-13T11:10:58.730Z,17.13
2023-02-13T11:13:50.518Z,16.80
2023-02-13T11:16:21.933Z,16.73
2023-02-13T11:18:53.723Z,16.80
2023-02-13T11:21:27.114Z,16.40
2023-02-13T11:23:59.075Z,17.17
2023-02-13T11:29:19.146Z,15.93
2023-02-13T11:31:51.658Z,17.80
2023-02-13T11:34:28.007Z,17.20
2023-02-13T11:39:51.416Z,16.67
2023-02-13T11:42:29.176Z,17.33
2023-02-13T11:45:03.918Z,17.57
2023-02-13T11:47:40.998Z,16.80
2023-02-13T11:50:26.550Z,17.87
2023-02-13T11:53:00.285Z,16.77
2023-02-13T11:55:34.557Z,15.87
2023-02-13T11:58:07.854Z,17.83
2023-02-13T12:00:41.776Z,16.33
2023-02-13T12:03:30.420Z,17.97
2023-02-13T12:06:08.155Z,16.87
2023-02-13T12:08:40.655Z,16.97
2023-02-13T12:11:18.390Z,17.77
2023-02-13T12:13:50.311Z,17.27
2023-02-13T12:16:25.318Z,17.07
2023-02-13T12:18:59.737Z,17.33
2023-02-13T12:21:40.811Z,18.23
2023-02-13T12:24:16.545Z,17.57
2023-02-13T12:26:49.880Z,17.73
2023-02-13T12:29:36.276Z,17.47
2023-02-13T12:32:14.464Z,17.53
2023-02-13T12:35:09.075Z,16.07
2023-02-13T12:37:54.932Z,16.70
2023-02-13T12:40:38.522Z,17.00
2023-02-13T12:43:26.198Z,15.50
2023-02-13T12:46:00.039Z,15.47
2023-02-13T12:51:25.058Z,15.03
2023-02-13T12:54:15.809Z,14.70
2023-02-13T12:57:03.340Z,15.40
2023-02-13T12:59:41.134Z,15.53
2023-02-13T13:02:50.885Z,15.47
2023-02-13T13:05:38.019Z,14.27
2023-02-13T13:08:17.646Z,15.00
2023-02-13T13:10:59.102Z,13.03
2023-02-13T13:13:41.034Z,13.70
2023-02-13T13:19:04.631Z,12.40
2023-02-13T13:21:42.115Z,12.90
2023-02-13T13:24:19.791Z,12.67
2023-02-13T13:26:54.552Z,12.47
2023-02-13T13:29:28.131Z,13.43
2023-02-13T13:32:02.255Z,12.80
2023-02-13T13:34:35.672Z,12.73
2023-02-13T13:37:11.723Z,12.13
2023-02-13T13:39:47.668Z,12.43
2023-02-13T13:42:22.030Z,12.17
2023-02-13T13:45:07.730Z,11.53
2023-02-13T13:47:51.106Z,11.30
2023-02-13T13:50:25.125Z,10.93
2023-02-13T13:53:18.997Z,11.37
2023-02-13T13:58:45.016Z,11.73
2023-02-13T14:01:29.447Z,11.93
2023-02-13T14:04:02.591Z,11.70
2023-02-13T14:06:55.376Z,9.80
2023-02-13T14:09:44.650Z,10.13
2023-02-13T14:12:45.298Z,9.77
2023-02-13T14:15:53.238Z,9.67
2023-02-13T14:18:27.133Z,10.97
2023-02-13T14:21:00.748Z,10.20
2023-02-13T14:23:42.222Z,10.00
2023-02-13T14:26:38.837Z,10.77
2023-02-13T14:29:34.916Z,10.97
2023-02-13T14:32:23.957Z,10.87
2023-02-13T14:34:58.079Z,9.80
2023-02-13T14:37:39.760Z,9.30
2023-02-13T14:40:49.255Z,9.97
2023-02-13T14:43:35.510Z,9.97
2023-02-13T14:49:15.654Z,9.00
2023-02-13T14:51:51.457Z,9.23
2023-02-13T14:54:28.696Z,8.67
2023-02-13T14:57:05.117Z,8.70
2023-02-13T14:59:37.824Z,9.50
2023-02-13T15:02:17.472Z,8.97
2023-02-13T15:04:51.181Z,8.67
2023-02-13T15:07:24.927Z,8.57
2023-02-13T15:09:58.103Z,9.27
2023-02-13T15:12:32.142Z,10.90
2023-02-13T15:15:05.977Z,9.40
2023-02-13T15:17:40.392Z,9.50
2023-02-13T15:20:21.621Z,9.00
2023-02-13T15:22:53.025Z,9.27
2023-02-13T15:25:33.335Z,9.53
2023-02-13T15:28:06.099Z,9.83
2023-02-13T15:30:39.072Z,9.20
2023-02-13T15:33:19.359Z,10.90
2023-02-13T15:35:56.817Z,9.67
2023-02-13T15:38:30.787Z,10.53
2023-02-13T15:41:05.475Z,9.97
2023-02-13T15:43:39.609Z,10.40
2023-02-13T15:46:22.084Z,10.63
2023-02-13T15:48:53.570Z,10.67
2023-02-13T15:51:26.853Z,9.73
2023-02-13T15:53:59.931Z,10.10
2023-02-13T15:56:31.980Z,9.63
2023-02-13T15:59:04.805Z,10.80
2023-02-13T16:01:36.055Z,10.37
2023-02-13T16:04:10.205Z,10.43
2023-02-13T16:06:42.126Z,10.60
2023-02-13T16:09:27.395Z,11.00
2023-02-13T16:12:07.032Z,10.60
2023-02-13T16:14:40.830Z,11.83
2023-02-13T16:17:17.009Z,9.97
2023-02-13T16:19:55.050Z,11.13
2023-02-13T16:22:34.056Z,11.63
2023-02-13T16:25:21.695Z,11.50
2023-02-13T16:27:54.469Z,10.93
2023-02-13T16:30:35.608Z,11.07
2023-02-13T16:33:25.676Z,10.03
2023-02-13T16:35:58.149Z,11.43
2023-02-13T16:38:34.873Z,10.80
2023-02-13T16:41:08.183Z,11.87
2023-02-13T16:43:47.292Z,10.90
2023-02-13T16:46:38.156Z,10.80
2023-02-13T16:49:20.837Z,11.20
2023-02-13T16:51:58.761Z,11.30
2023-02-13T16:54:38.638Z,11.03
2023-02-13T16:57:21.551Z,11.23
2023-02-13T16:59:56.910Z,10.60
2023-02-13T17:02:29.090Z,10.40
2023-02-13T17:05:02.990Z,10.37
2023-02-13T17:07:35.962Z,11.10
2023-02-13T17:10:09.837Z,10.53
2023-02-13T17:12:41.240Z,10.60
2023-02-13T17:15:15.901Z,11.30
2023-02-13T17:17:47.425Z,11.37
2023-02-13T17:20:20.901Z,11.60
2023-02-13T17:22:54.068Z,11.60
2023-02-13T17:25:26.387Z,11.20
2023-02-13T17:27:58.851Z,11.60
2023-02-13T17:30:31.471Z,11.97
2023-02-13T17:33:07.121Z,11.33
2023-02-13T17:35:38.253Z,11.17
2023-02-13T17:38:10.946Z,11.30
2023-02-13T17:40:44.296Z,14.90
2023-02-13T17:43:18.467Z,13.20
2023-02-13T17:45:50.440Z,11.23
2023-02-13T17:48:24.262Z,10.97
2023-02-13T17:50:55.205Z,11.07
2023-02-13T17:53:30.033Z,12.27
2023-02-13T17:56:01.520Z,11.17
2023-02-13T17:58:32.458Z,11.27
2023-02-13T18:01:04.354Z,11.10
2023-02-13T18:03:35.713Z,11.00
2023-02-13T18:06:13.259Z,11.53
2023-02-13T18:08:44.746Z,11.53
2023-02-13T18:11:15.776Z,10.43
2023-02-13T18:13:48.629Z,11.27
2023-02-13T18:16:21.949Z,10.43
2023-02-13T18:18:53.173Z,12.73
2023-02-13T18:21:25.828Z,11.00
2023-02-13T18:23:56.963Z,10.53
2023-02-13T18:26:28.081Z,11.70
2023-02-13T18:28:59.078Z,11.30
2023-02-13T18:31:30.996Z,11.90
2023-02-13T18:34:02.220Z,10.73
2023-02-13T18:36:33.311Z,10.93
2023-02-13T18:39:04.764Z,11.30
2023-02-13T18:41:35.862Z,10.00
2023-02-13T18:44:08.992Z,10.33
2023-02-13T18:46:40.198Z,10.10
2023-02-13T18:49:12.545Z,10.40
2023-02-13T18:51:44.610Z,11.60
2023-02-13T18:54:16.446Z,11.13
2023-02-13T18:56:47.570Z,11.13
2023-02-13T18:59:19.413Z,11.13
2023-02-13T19:01:51.186Z,11.20
2023-02-13T19:04:22.729Z,11.50
2023-02-13T19:06:54.230Z,11.70
2023-02-13T19:09:25.821Z,10.00
2023-02-13T19:11:57.148Z,10.70
2023-02-13T19:14:28.232Z,11.87
2023-02-13T19:16:59.407Z,10.60
2023-02-13T19:19:31.719Z,11.30
2023-02-13T19:22:02.694Z,11.33
2023-02-13T19:24:34.445Z,11.20
2023-02-13T19:27:06.333Z,10.57
2023-02-13T19:29:37.613Z,11.10
2023-02-13T19:32:09.070Z,10.33
2023-02-13T19:34:40.516Z,10.13
2023-02-13T19:37:11.388Z,11.10
2023-02-13T19:39:42.748Z,12.63
2023-02-13T19:42:13.797Z,10.23
2023-02-13T19:44:44.941Z,10.97
2023-02-13T19:47:16.647Z,9.50
2023-02-13T19:49:48.267Z,9.53
2023-02-13T19:52:19.112Z,8.70
2023-02-13T19:54:50.835Z,9.23
2023-02-13T19:57:22.762Z,9.37
2023-02-13T19:59:54.610Z,8.83
2023-02-13T20:02:25.983Z,9.23
2023-02-13T20:04:57.229Z,9.47
2023-02-13T20:07:28.165Z,8.07
2023-02-13T20:09:59.838Z,8.70
2023-02-13T20:12:31.480Z,9.23
2023-02-13T20:15:04.958Z,9.23
2023-02-13T20:17:39.136Z,8.23
2023-02-13T20:20:29.617Z,8.27
2023-02-13T20:23:00.706Z,8.03
2023-02-13T20:25:32.413Z,10.23
2023-02-13T20:28:03.661Z,9.80
2023-02-13T20:30:34.670Z,9.20
2023-02-13T20:33:05.993Z,8.47
2023-02-13T20:35:38.321Z,9.27
2023-02-13T20:38:09.450Z,8.63
2023-02-13T20:40:40.358Z,9.40
2023-02-13T20:43:11.281Z,9.20
2023-02-13T20:45:42.386Z,9.13
2023-02-13T20:48:13.363Z,9.10
2023-02-13T20:50:44.278Z,8.50
2023-02-13T20:53:15.374Z,9.27
2023-02-13T20:55:46.254Z,8.93
2023-02-13T20:58:17.168Z,9.77
2023-02-13T21:00:48.374Z,9.47
2023-02-13T21:03:19.180Z,8.93
2023-02-13T21:05:50.243Z,12.07
2023-02-13T21:08:21.664Z,11.40
2023-02-13T21:10:52.813Z,14.80
2023-02-13T21:13:23.964Z,11.30
2023-02-13T21:15:56.819Z,12.30
2023-02-13T21:18:28.172Z,12.20
2023-02-13T21:20:59.311Z,13.03
2023-02-13T21:23:30.559Z,18.83
2023-02-13T21:26:05.385Z,17.47
2023-02-13T21:28:37.310Z,14.67
2023-02-13T21:31:12.587Z,13.93
2023-02-13T21:33:43.466Z,12.67
2023-02-13T21:36:15.102Z,13.10
2023-02-13T21:38:45.815Z,14.50
2023-02-13T21:41:17.986Z,15.27
2023-02-13T21:43:49.525Z,17.40
2023-02-13T21:46:22.359Z,15.40
2023-02-13T21:48:57.039Z,13.50
2023-02-13T21:51:29.579Z,11.87
2023-02-13T21:54:01.346Z,11.33
2023-02-13T21:56:34.783Z,11.37
2023-02-13T21:59:06.657Z,10.47
2023-02-13T22:01:39.031Z,10.77
2023-02-13T22:04:11.425Z,10.50
2023-02-13T22:06:42.850Z,11.00
2023-02-13T22:09:15.778Z,10.87
2023-02-13T22:11:47.011Z,11.70
2023-02-13T22:14:19.334Z,12.97
2023-02-13T22:16:52.661Z,11.47
2023-02-13T22:19:23.773Z,11.60
2023-02-13T22:21:55.613Z,11.70
2023-02-13T22:24:27.917Z,11.40
2023-02-13T22:26:59.830Z,11.30
2023-02-13T22:29:30.943Z,11.40
2023-02-13T22:32:02.157Z,11.17
2023-02-13T22:34:33.302Z,10.73
2023-02-13T22:37:04.349Z,10.93
2023-02-13T22:39:35.394Z,11.73
2023-02-13T22:42:06.472Z,11.80
2023-02-13T22:44:37.234Z,10.83
2023-02-13T22:47:08.357Z,11.27
2023-02-13T22:49:39.483Z,11.90
2023-02-13T22:52:11.466Z,11.47
2023-02-13T22:54:42.411Z,11.40
2023-02-13T22:57:13.300Z,11.13
2023-02-13T22:59:44.843Z,12.25
2023-02-13T23:02:15.850Z,10.93
2023-02-13T23:04:48.309Z,10.33
2023-02-13T23:07:19.309Z,10.97
2023-02-13T23:09:50.945Z,10.83
2023-02-13T23:12:37.439Z,12.23
2023-02-13T23:15:11.323Z,13.13
2023-02-13T23:18:00.109Z,11.90
2023-02-13T23:20:31.373Z,12.33
2023-02-13T23:23:04.661Z,12.20
2023-02-13T23:25:35.266Z,12.30
2023-02-13T23:28:06.996Z,11.00
2023-02-13T23:30:37.942Z,11.07
2023-02-13T23:33:09.007Z,11.23
2023-02-13T23:35:40.137Z,11.03
2023-02-13T23:38:11.144Z,11.30
2023-02-13T23:40:41.987Z,11.43
2023-02-13T23:43:12.903Z,13.20
2023-02-13T23:45:44.212Z,10.40
2023-02-13T23:48:15.109Z,11.00
2023-02-13T23:50:46.024Z,16.70
2023-02-13T23:53:16.885Z,14.00
2023-02-13T23:55:47.910Z,13.67
2023-02-13T23:58:18.861Z,13.67
